createdAt,value
2022-11-25T00:01:44.029Z,3.55
2022-11-25T00:03:47.121Z,3.20
2022-11-25T00:05:48.859Z,5.28
2022-11-25T00:07:50.710Z,4.97
2022-11-25T00:09:52.429Z,4.15
2022-11-25T00:11:54.288Z,3.63
2022-11-25T00:13:57.442Z,4.25
2022-11-25T00:16:08.194Z,3.42
2022-11-25T00:18:09.913Z,3.40
2022-11-25T00:20:11.845Z,3.57
2022-11-25T00:22:13.550Z,3.20
2022-11-25T00:24:16.851Z,2.93
2022-11-25T00:26:18.605Z,2.85
2022-11-25T00:28:20.362Z,2.57
2022-11-25T00:30:22.085Z,2.90
2022-11-25T00:32:23.862Z,2.30
2022-11-25T00:34:25.901Z,2.70
2022-11-25T00:36:27.587Z,3.50
2022-11-25T00:38:29.805Z,5.10
2022-11-25T00:40:31.573Z,3.83
2022-11-25T00:42:51.708Z,3.53
2022-11-25T00:44:53.435Z,2.80
2022-11-25T00:46:55.438Z,2.00
2022-11-25T00:48:57.132Z,2.28
2022-11-25T00:50:58.851Z,2.07
2022-11-25T00:53:00.585Z,2.60
2022-11-25T00:55:02.621Z,2.73
2022-11-25T00:57:04.439Z,2.67
2022-11-25T00:59:06.294Z,2.20
2022-11-25T01:01:08.536Z,2.20
2022-11-25T01:03:11.354Z,2.45
2022-11-25T01:05:13.040Z,2.10
2022-11-25T01:07:14.976Z,2.27
2022-11-25T01:09:16.735Z,3.15
2022-11-25T01:11:20.490Z,2.77
2022-11-25T01:13:22.194Z,2.75
2022-11-25T01:15:23.882Z,2.17
2022-11-25T01:17:25.623Z,2.43
2022-11-25T01:19:27.756Z,1.95
2022-11-25T01:21:32.165Z,4.82
2022-11-25T01:23:34.327Z,2.22
2022-11-25T01:25:44.950Z,1.85
2022-11-25T01:27:46.866Z,1.80
2022-11-25T01:29:49.686Z,1.73
2022-11-25T01:31:54.306Z,1.90
2022-11-25T01:34:01.965Z,3.75
2022-11-25T01:36:10.137Z,2.08
2022-11-25T01:38:11.842Z,1.80
2022-11-25T01:40:13.630Z,2.50
2022-11-25T01:42:15.361Z,1.90
2022-11-25T01:44:22.882Z,3.42
2022-11-25T01:46:31.164Z,3.63
2022-11-25T01:49:07.417Z,1.88
2022-11-25T01:51:26.045Z,2.25
2022-11-25T01:53:27.784Z,1.73
2022-11-25T01:55:33.189Z,1.95
2022-11-25T01:57:46.260Z,2.05
2022-11-25T01:59:52.568Z,2.45
2022-11-25T02:01:55.034Z,1.80
2022-11-25T02:03:58.662Z,2.33
2022-11-25T02:06:08.969Z,1.98
2022-11-25T02:08:10.930Z,1.55
2022-11-25T02:10:16.572Z,1.70
2022-11-25T02:12:19.949Z,3.22
2022-11-25T02:14:23.219Z,2.08
2022-11-25T02:16:25.127Z,1.50
2022-11-25T02:18:27.481Z,2.03
2022-11-25T02:20:29.681Z,3.03
2022-11-25T02:23:17.532Z,2.00
2022-11-25T02:25:41.222Z,2.03
2022-11-25T02:27:45.758Z,1.70
2022-11-25T02:29:48.366Z,2.35
2022-11-25T02:33:53.079Z,1.58
2022-11-25T02:36:10.631Z,2.85
2022-11-25T02:38:15.374Z,1.73
2022-11-25T02:40:17.563Z,1.80
2022-11-25T02:42:20.573Z,1.60
2022-11-25T02:44:22.317Z,2.10
2022-11-25T02:46:25.812Z,1.98
2022-11-25T02:49:00.710Z,1.95
2022-11-25T02:50:51.833Z,1.73
2022-11-25T02:52:53.569Z,1.92
2022-11-25T02:54:55.302Z,1.65
2022-11-25T02:56:57.028Z,2.05
2022-11-25T02:58:59.271Z,2.10
2022-11-25T03:01:01.143Z,1.73
2022-11-25T03:03:03.415Z,1.88
2022-11-25T03:05:05.406Z,1.70
2022-11-25T03:07:07.136Z,1.48
2022-11-25T03:09:08.840Z,2.13
2022-11-25T03:11:10.711Z,2.30
2022-11-25T03:13:12.830Z,2.10
2022-11-25T03:15:14.544Z,3.20
2022-11-25T03:17:16.287Z,2.17
2022-11-25T03:19:17.997Z,2.00
2022-11-25T03:21:19.710Z,4.97
2022-11-25T03:23:22.079Z,2.08
2022-11-25T03:25:23.792Z,2.63
2022-11-25T03:27:29.107Z,1.75
2022-11-25T03:29:32.160Z,2.00
2022-11-25T03:31:33.935Z,2.30
2022-11-25T03:33:35.695Z,1.83
2022-11-25T03:35:37.497Z,2.00
2022-11-25T03:37:39.950Z,2.10
2022-11-25T03:39:41.710Z,2.60
2022-11-25T03:41:43.459Z,2.13
2022-11-25T03:43:46.072Z,2.20
2022-11-25T03:47:52.483Z,3.28
2022-11-25T03:49:54.283Z,2.28
2022-11-25T03:51:56.146Z,4.50
2022-11-25T03:53:57.886Z,2.10
2022-11-25T03:55:59.628Z,2.27
2022-11-25T03:58:01.357Z,2.27
2022-11-25T04:00:03.970Z,2.20
2022-11-25T04:04:07.738Z,3.67
2022-11-25T04:06:09.430Z,2.40
2022-11-25T04:08:11.210Z,2.17
2022-11-25T04:10:13.006Z,3.55
2022-11-25T04:12:33.032Z,2.67
2022-11-25T04:14:34.927Z,4.07
2022-11-25T04:16:36.833Z,2.00
2022-11-25T04:18:38.636Z,2.90
2022-11-25T04:20:40.743Z,2.28
2022-11-25T04:22:42.561Z,3.85
2022-11-25T04:24:44.375Z,2.03
2022-11-25T04:26:46.200Z,2.13
2022-11-25T04:28:47.948Z,2.45
2022-11-25T04:30:49.717Z,2.88
2022-11-25T04:32:51.598Z,2.53
2022-11-25T04:34:53.327Z,2.28
2022-11-25T04:36:55.010Z,2.07
2022-11-25T04:38:56.793Z,2.20
2022-11-25T04:40:58.623Z,2.17
2022-11-25T04:43:04.830Z,3.20
2022-11-25T04:45:26.423Z,2.10
2022-11-25T04:47:29.822Z,2.30
2022-11-25T04:49:31.578Z,2.40
2022-11-25T04:51:33.446Z,2.70
2022-11-25T04:53:35.291Z,2.85
2022-11-25T04:55:37.212Z,2.50
2022-11-25T04:57:39.027Z,5.25
2022-11-25T04:59:44.636Z,2.22
2022-11-25T05:01:46.501Z,2.00
2022-11-25T05:03:55.983Z,2.85
2022-11-25T05:05:59.034Z,2.30
2022-11-25T05:08:00.959Z,3.40
2022-11-25T05:10:02.820Z,2.83
2022-11-25T05:12:06.131Z,4.35
2022-11-25T05:14:07.913Z,2.00
2022-11-25T05:16:09.838Z,2.30
2022-11-25T05:18:11.550Z,2.17
2022-11-25T05:20:13.530Z,2.50
2022-11-25T05:22:17.619Z,2.22
2022-11-25T05:24:19.462Z,2.33
2022-11-25T05:26:21.345Z,3.17
2022-11-25T05:28:23.047Z,2.13
2022-11-25T05:30:25.378Z,2.78
2022-11-25T05:32:27.179Z,1.90
2022-11-25T05:34:28.937Z,2.90
2022-11-25T05:36:30.922Z,1.98
2022-11-25T05:38:32.693Z,2.17
2022-11-25T05:40:34.420Z,2.35
2022-11-25T05:42:36.123Z,2.00
2022-11-25T05:44:38.034Z,2.23
2022-11-25T05:46:39.912Z,2.13
2022-11-25T05:48:41.675Z,2.28
2022-11-25T05:50:43.387Z,1.85
2022-11-25T05:52:45.071Z,2.30
2022-11-25T05:54:46.766Z,2.67
2022-11-25T05:56:48.478Z,1.93
2022-11-25T05:58:50.292Z,2.00
2022-11-25T06:00:52.487Z,2.17
2022-11-25T06:02:54.473Z,3.13
2022-11-25T06:04:56.291Z,2.30
2022-11-25T06:06:58.046Z,2.60
2022-11-25T06:09:00.375Z,2.47
2022-11-25T06:11:10.125Z,3.10
2022-11-25T06:13:11.842Z,3.42
2022-11-25T06:15:14.381Z,3.00
2022-11-25T06:17:16.297Z,3.67
2022-11-25T06:19:17.991Z,3.83
2022-11-25T06:21:20.327Z,4.43
2022-11-25T06:23:22.079Z,6.45
2022-11-25T06:25:23.838Z,4.57
2022-11-25T06:27:25.887Z,4.67
2022-11-25T06:29:27.602Z,5.43
2022-11-25T06:31:29.810Z,5.33
2022-11-25T06:33:31.621Z,4.75
2022-11-25T06:35:33.468Z,4.40
2022-11-25T06:37:35.254Z,3.63
2022-11-25T06:39:36.960Z,3.85
2022-11-25T06:41:38.749Z,3.17
2022-11-25T06:43:40.904Z,3.88
2022-11-25T06:45:42.617Z,3.00
2022-11-25T06:47:44.392Z,2.50
2022-11-25T06:49:46.078Z,2.95
2022-11-25T06:51:50.087Z,3.73
2022-11-25T06:53:52.638Z,2.40
2022-11-25T06:58:34.322Z,3.25
2022-11-25T07:00:30.527Z,3.33
2022-11-25T07:02:39.792Z,3.53
2022-11-25T07:04:44.652Z,3.03
2022-11-25T07:06:46.375Z,2.85
2022-11-25T07:08:48.799Z,3.40
2022-11-25T07:10:50.991Z,4.35
2022-11-25T07:12:53.001Z,3.15
2022-11-25T07:14:54.746Z,4.32
2022-11-25T07:16:56.420Z,3.67
2022-11-25T07:19:05.072Z,2.70
2022-11-25T07:21:11.144Z,3.25
2022-11-25T07:23:12.944Z,3.60
2022-11-25T07:25:14.717Z,2.90
2022-11-25T07:27:16.414Z,5.27
2022-11-25T07:31:43.237Z,4.10
2022-11-25T07:33:45.817Z,2.30
2022-11-25T07:37:49.167Z,2.45
2022-11-25T07:39:50.961Z,2.03
2022-11-25T07:41:53.993Z,2.88
2022-11-25T07:43:58.893Z,2.75
2022-11-25T07:46:29.082Z,3.70
2022-11-25T07:48:31.789Z,4.72
2022-11-25T07:50:33.554Z,2.53
2022-11-25T07:52:38.850Z,3.13
2022-11-25T07:54:40.591Z,2.50
2022-11-25T07:56:44.695Z,3.47
2022-11-25T07:58:46.501Z,2.80
2022-11-25T08:00:48.244Z,3.97
2022-11-25T08:02:50.062Z,4.63
2022-11-25T08:04:51.840Z,3.13
2022-11-25T08:06:54.268Z,3.00
2022-11-25T08:08:57.671Z,3.20
2022-11-25T08:10:59.879Z,3.58
2022-11-25T08:13:02.553Z,3.65
2022-11-25T08:15:04.539Z,3.10
2022-11-25T08:17:06.361Z,4.53
2022-11-25T08:19:11.614Z,4.45
2022-11-25T08:21:14.793Z,4.88
2022-11-25T08:23:16.563Z,5.13
2022-11-25T08:25:18.319Z,3.83
2022-11-25T08:27:20.044Z,3.93
2022-11-25T08:29:21.972Z,3.50
2022-11-25T08:31:29.878Z,3.17
2022-11-25T08:33:32.133Z,3.47
2022-11-25T08:35:37.983Z,2.47
2022-11-25T08:37:39.922Z,2.60
2022-11-25T08:39:52.469Z,3.25
2022-11-25T08:41:54.843Z,3.35
2022-11-25T08:43:58.833Z,2.97
2022-11-25T08:46:00.629Z,3.95
2022-11-25T08:48:02.424Z,3.03
2022-11-25T08:50:08.076Z,3.67
2022-11-25T08:52:10.715Z,3.42
2022-11-25T08:56:15.077Z,3.10
2022-11-25T09:00:18.872Z,2.97
2022-11-25T09:02:20.722Z,4.05
2022-11-25T09:04:22.495Z,5.55
2022-11-25T09:06:27.000Z,5.22
2022-11-25T09:08:28.918Z,3.45
2022-11-25T09:10:31.104Z,3.45
2022-11-25T09:12:32.846Z,2.30
2022-11-25T09:14:34.706Z,2.27
2022-11-25T09:16:36.684Z,2.70
2022-11-25T09:18:39.808Z,4.03
2022-11-25T09:20:41.786Z,4.45
2022-11-25T09:22:43.544Z,3.28
2022-11-25T09:24:45.759Z,2.70
2022-11-25T09:26:49.270Z,2.33
2022-11-25T09:28:51.315Z,3.67
2022-11-25T09:30:53.228Z,3.30
2022-11-25T09:32:55.773Z,2.72
2022-11-25T09:34:57.491Z,7.00
2022-11-25T09:36:59.215Z,3.27
2022-11-25T09:39:01.038Z,3.43
2022-11-25T09:41:10.102Z,3.03
2022-11-25T09:43:57.024Z,3.35
2022-11-25T09:46:42.081Z,3.53
2022-11-25T09:48:59.005Z,3.05
2022-11-25T09:51:38.391Z,2.70
2022-11-25T09:53:56.643Z,2.75
2022-11-25T09:56:11.042Z,4.53
2022-11-25T09:58:31.482Z,3.53
2022-11-25T10:00:39.047Z,3.83
2022-11-25T10:03:04.474Z,5.95
2022-11-25T10:05:21.031Z,6.05
2022-11-25T10:07:34.585Z,3.90
2022-11-25T10:09:36.540Z,2.70
2022-11-25T10:12:03.286Z,3.90
2022-11-25T10:14:34.205Z,3.78
2022-11-25T10:16:38.791Z,2.40
2022-11-25T10:18:48.098Z,3.60
2022-11-25T10:20:51.947Z,3.72
2022-11-25T10:23:01.854Z,4.97
2022-11-25T10:25:20.883Z,3.90
2022-11-25T10:27:49.300Z,3.47
2022-11-25T10:30:01.566Z,3.95
2022-11-25T10:32:26.271Z,2.85
2022-11-25T10:34:44.359Z,5.03
2022-11-25T10:36:48.741Z,3.70
2022-11-25T10:38:56.040Z,2.70
2022-11-25T10:40:58.223Z,5.65
2022-11-25T10:43:08.403Z,2.42
2022-11-25T10:45:11.793Z,7.13
2022-11-25T10:47:36.696Z,4.30
2022-11-25T10:49:56.264Z,2.47
2022-11-25T10:51:58.111Z,2.45
2022-11-25T10:54:11.321Z,2.17
2022-11-25T10:56:18.985Z,3.17
2022-11-25T10:58:29.775Z,1.90
2022-11-25T11:00:35.453Z,2.47
2022-11-25T11:02:41.326Z,2.13
2022-11-25T11:04:59.289Z,1.83
2022-11-25T11:07:09.389Z,2.20
2022-11-25T11:09:36.919Z,6.00
2022-11-25T11:11:48.736Z,10.80
2022-11-25T11:13:58.971Z,1.65
2022-11-25T11:16:00.901Z,2.30
2022-11-25T11:18:24.617Z,1.35
2022-11-25T11:20:29.077Z,2.00
2022-11-25T11:22:33.051Z,2.25
2022-11-25T11:24:38.419Z,1.52
2022-11-25T11:26:40.424Z,2.80
2022-11-25T11:28:42.159Z,1.60
2022-11-25T11:31:14.177Z,1.58
2022-11-25T11:33:54.890Z,2.35
2022-11-25T11:36:05.405Z,2.67
2022-11-25T11:38:21.236Z,2.55
2022-11-25T11:40:31.865Z,2.20
2022-11-25T11:42:42.646Z,1.70
2022-11-25T11:45:03.163Z,2.42
2022-11-25T11:47:29.860Z,8.48
2022-11-25T11:49:54.818Z,5.60
2022-11-25T11:52:14.235Z,4.97
2022-11-25T11:54:22.627Z,2.33
2022-11-25T11:56:36.484Z,1.48
2022-11-25T11:58:44.256Z,3.33
2022-11-25T12:00:57.909Z,5.28
2022-11-25T12:03:09.417Z,5.57
2022-11-25T12:05:11.168Z,5.43
2022-11-25T12:07:38.194Z,4.78
2022-11-25T12:09:50.869Z,1.75
2022-11-25T12:11:59.654Z,1.75
2022-11-25T12:14:32.476Z,2.30
2022-11-25T12:16:47.157Z,2.72
2022-11-25T12:19:00.762Z,2.50
2022-11-25T12:21:05.175Z,2.15
2022-11-25T12:23:14.047Z,3.45
2022-11-25T12:25:25.319Z,1.40
2022-11-25T12:27:37.544Z,0.98
2022-11-25T12:29:41.995Z,1.83
2022-11-25T12:31:53.738Z,0.88
2022-11-25T12:34:11.857Z,0.80
2022-11-25T12:36:20.846Z,1.42
2022-11-25T12:38:44.167Z,1.75
2022-11-25T12:42:52.051Z,1.92
2022-11-25T12:45:12.014Z,0.95
2022-11-25T12:47:13.795Z,1.10
2022-11-25T12:49:28.949Z,2.70
2022-11-25T12:51:45.951Z,3.50
2022-11-25T12:53:54.335Z,1.52
2022-11-25T12:55:59.697Z,3.42
2022-11-25T12:58:20.007Z,1.52
2022-11-25T13:03:09.296Z,1.77
2022-11-25T13:05:41.153Z,2.47
2022-11-25T13:08:21.046Z,1.20
2022-11-25T13:10:37.854Z,3.42
2022-11-25T13:12:58.774Z,2.35
2022-11-25T13:15:22.243Z,1.10
2022-11-25T13:17:25.918Z,3.55
2022-11-25T13:19:27.833Z,1.90
2022-11-25T13:21:29.730Z,1.20
2022-11-25T13:23:50.607Z,1.57
2022-11-25T13:25:54.029Z,1.58
2022-11-25T13:27:58.560Z,1.88
2022-11-25T13:30:01.924Z,1.50
2022-11-25T13:32:25.107Z,2.15
2022-11-25T13:34:33.219Z,1.55
2022-11-25T13:36:56.380Z,3.65
2022-11-25T13:39:03.097Z,3.90
2022-11-25T13:41:21.641Z,7.28
2022-11-25T13:43:23.471Z,2.60
2022-11-25T13:45:34.352Z,3.07
2022-11-25T13:47:40.113Z,1.83
2022-11-25T13:50:07.355Z,1.25
2022-11-25T13:52:12.948Z,4.45
2022-11-25T13:54:21.541Z,3.13
2022-11-25T13:56:33.101Z,2.00
2022-11-25T13:58:36.076Z,3.63
2022-11-25T14:00:56.713Z,2.70
2022-11-25T14:03:18.593Z,3.08
2022-11-25T14:05:49.936Z,3.38
2022-11-25T14:08:21.458Z,3.08
2022-11-25T14:10:46.055Z,5.10
2022-11-25T14:13:21.953Z,2.67
2022-11-25T14:15:36.935Z,3.65
2022-11-25T14:17:59.325Z,2.42
2022-11-25T14:20:05.106Z,8.73
2022-11-25T14:22:20.440Z,5.22
2022-11-25T14:24:41.030Z,4.97
2022-11-25T14:26:50.091Z,4.65
2022-11-25T14:28:56.361Z,7.65
2022-11-25T14:31:05.285Z,6.32
2022-11-25T14:33:12.523Z,7.65
2022-11-25T14:35:27.224Z,9.38
2022-11-25T14:37:55.269Z,6.55
2022-11-25T14:40:04.020Z,6.28
2022-11-25T14:42:12.021Z,9.80
2022-11-25T14:44:27.756Z,7.07
2022-11-25T14:46:29.613Z,12.93
2022-11-25T14:48:31.302Z,8.00
2022-11-25T14:50:35.271Z,10.77
2022-11-25T14:52:37.620Z,15.05
2022-11-25T14:54:44.482Z,6.05
2022-11-25T14:56:47.694Z,7.93
2022-11-25T14:58:54.685Z,10.10
2022-11-25T15:01:08.020Z,7.40
2022-11-25T15:03:19.896Z,8.93
2022-11-25T15:05:26.257Z,10.60
2022-11-25T15:07:31.377Z,9.50
2022-11-25T15:09:42.068Z,6.70
2022-11-25T15:11:44.130Z,6.85
2022-11-25T15:13:48.770Z,8.07
2022-11-25T15:15:52.387Z,5.00
2022-11-25T15:17:55.247Z,7.03
2022-11-25T15:20:02.744Z,5.97
2022-11-25T15:22:22.587Z,5.35
2022-11-25T15:24:30.238Z,7.57
2022-11-25T15:26:34.505Z,6.53
2022-11-25T15:28:38.205Z,11.10
2022-11-25T15:30:39.934Z,4.88
2022-11-25T15:32:41.742Z,4.63
2022-11-25T15:34:44.834Z,8.57
2022-11-25T15:36:51.112Z,6.18
2022-11-25T15:39:12.520Z,7.82
2022-11-25T15:41:35.785Z,7.82
2022-11-25T15:45:48.454Z,4.50
2022-11-25T15:47:50.436Z,8.05
2022-11-25T15:49:58.989Z,8.10
2022-11-25T15:52:06.984Z,9.30
2022-11-25T15:54:19.023Z,10.05
2022-11-25T15:56:25.443Z,10.30
2022-11-25T15:58:27.283Z,10.52
2022-11-25T16:00:29.132Z,6.60
2022-11-25T16:02:42.767Z,5.38
2022-11-25T16:04:44.864Z,8.40
2022-11-25T16:06:54.714Z,9.65
2022-11-25T16:09:00.105Z,8.07
2022-11-25T16:11:17.166Z,9.60
2022-11-25T16:13:25.717Z,7.93
2022-11-25T16:15:45.204Z,12.60
2022-11-25T16:17:47.338Z,9.70
2022-11-25T16:19:49.216Z,7.50
2022-11-25T16:21:54.585Z,6.50
2022-11-25T16:24:32.857Z,6.18
2022-11-25T16:27:00.937Z,9.00
2022-11-25T16:29:14.337Z,7.82
2022-11-25T16:31:17.307Z,6.40
2022-11-25T16:33:19.118Z,6.50
2022-11-25T16:35:22.137Z,11.38
2022-11-25T16:37:24.185Z,9.13
2022-11-25T16:39:26.156Z,9.73
2022-11-25T16:41:27.974Z,9.80
2022-11-25T16:43:30.079Z,11.53
2022-11-25T16:45:31.928Z,9.25
2022-11-25T16:47:33.690Z,9.37
2022-11-25T16:49:35.772Z,4.80
2022-11-25T16:51:37.989Z,11.75
2022-11-25T16:53:39.682Z,7.15
2022-11-25T16:55:44.350Z,9.32
2022-11-25T16:57:46.518Z,8.45
2022-11-25T16:59:53.266Z,5.97
2022-11-25T17:01:59.194Z,6.78
2022-11-25T17:04:00.988Z,8.65
2022-11-25T17:06:02.756Z,11.02
2022-11-25T17:08:04.770Z,5.80
2022-11-25T17:10:07.916Z,6.63
2022-11-25T17:12:15.678Z,6.25
2022-11-25T17:14:32.787Z,8.20
2022-11-25T17:16:34.704Z,6.07
2022-11-25T17:18:36.569Z,7.03
2022-11-25T17:20:38.391Z,8.48
2022-11-25T17:22:40.085Z,8.82
2022-11-25T17:24:42.270Z,8.13
2022-11-25T17:26:47.345Z,9.45
2022-11-25T17:28:55.161Z,5.43
2022-11-25T17:30:56.919Z,9.43
2022-11-25T17:33:06.254Z,4.40
2022-11-25T17:35:20.934Z,7.47
2022-11-25T17:37:24.336Z,10.45
2022-11-25T17:39:26.102Z,8.73
2022-11-25T17:41:29.171Z,7.55
2022-11-25T17:43:34.593Z,11.75
2022-11-25T17:45:36.698Z,9.18
2022-11-25T17:47:38.469Z,10.43
2022-11-25T17:49:40.439Z,11.48
2022-11-25T17:51:43.615Z,8.77
2022-11-25T17:53:47.016Z,10.32
2022-11-25T17:55:48.779Z,12.70
2022-11-25T17:57:50.816Z,12.43
2022-11-25T17:59:52.622Z,9.35
2022-11-25T18:01:56.172Z,8.03
2022-11-25T18:03:58.136Z,8.73
2022-11-25T18:05:59.829Z,13.50
2022-11-25T18:08:01.745Z,11.07
2022-11-25T18:10:03.742Z,13.63
2022-11-25T18:12:13.397Z,11.02
2022-11-25T18:14:26.526Z,12.13
2022-11-25T18:16:31.068Z,12.15
2022-11-25T18:18:32.880Z,11.00
2022-11-25T18:20:34.828Z,9.57
2022-11-25T18:22:36.915Z,8.15
2022-11-25T18:24:38.887Z,9.80
2022-11-25T18:26:46.811Z,7.70
2022-11-25T18:28:48.782Z,9.68
2022-11-25T18:30:51.574Z,10.13
2022-11-25T18:32:53.462Z,12.25
2022-11-25T18:34:55.218Z,13.10
2022-11-25T18:36:56.926Z,11.55
2022-11-25T18:38:58.654Z,12.35
2022-11-25T18:41:01.726Z,13.27
2022-11-25T18:43:04.757Z,10.75
2022-11-25T18:45:10.343Z,11.63
2022-11-25T18:47:12.825Z,7.68
2022-11-25T18:49:15.752Z,12.32
2022-11-25T18:51:17.495Z,14.02
2022-11-25T18:53:19.325Z,15.10
2022-11-25T18:55:26.828Z,7.93
2022-11-25T18:57:28.636Z,8.63
2022-11-25T18:59:36.442Z,9.23
2022-11-25T19:01:38.230Z,8.02
2022-11-25T19:03:40.452Z,7.20
2022-11-25T19:05:42.148Z,8.38
2022-11-25T19:07:45.496Z,9.27
2022-11-25T19:09:47.328Z,8.50
2022-11-25T19:11:53.901Z,9.37
2022-11-25T19:14:05.101Z,8.38
2022-11-25T19:16:12.830Z,8.45
2022-11-25T19:18:19.029Z,9.70
2022-11-25T19:20:22.979Z,7.18
2022-11-25T19:22:25.331Z,4.68
2022-11-25T19:24:36.625Z,13.27
2022-11-25T19:26:43.297Z,9.93
2022-11-25T19:28:49.690Z,10.63
2022-11-25T19:30:59.436Z,9.38
2022-11-25T19:33:03.066Z,6.70
2022-11-25T19:35:08.671Z,10.38
2022-11-25T19:37:20.768Z,11.88
2022-11-25T19:39:24.294Z,9.43
2022-11-25T19:41:34.237Z,7.60
2022-11-25T19:43:36.047Z,12.15
2022-11-25T19:45:38.089Z,9.60
2022-11-25T19:47:40.352Z,10.77
2022-11-25T19:49:42.314Z,12.15
2022-11-25T19:51:44.318Z,9.40
2022-11-25T19:53:46.018Z,8.90
2022-11-25T19:55:48.728Z,12.63
2022-11-25T19:59:52.895Z,10.03
2022-11-25T20:01:54.746Z,10.60
2022-11-25T20:03:56.626Z,9.30
2022-11-25T20:05:58.892Z,11.60
2022-11-25T20:08:02.030Z,10.65
2022-11-25T20:10:24.923Z,12.95
2022-11-25T20:12:29.666Z,9.98
2022-11-25T20:14:34.672Z,16.83
2022-11-25T20:16:40.172Z,10.15
2022-11-25T20:18:42.332Z,9.27
2022-11-25T20:20:45.280Z,9.38
2022-11-25T20:23:02.760Z,8.85
2022-11-25T20:25:07.143Z,11.43
2022-11-25T20:27:11.864Z,8.68
2022-11-25T20:29:19.578Z,9.25
2022-11-25T20:31:22.134Z,9.48
2022-11-25T20:33:25.063Z,10.10
2022-11-25T20:35:26.949Z,9.50
2022-11-25T20:37:29.917Z,11.00
2022-11-25T20:39:31.654Z,9.73
2022-11-25T20:41:33.708Z,13.37
2022-11-25T20:43:39.132Z,11.95
2022-11-25T20:45:41.016Z,9.90
2022-11-25T20:47:43.153Z,12.98
2022-11-25T20:49:45.825Z,13.15
2022-11-25T20:53:52.845Z,7.53
2022-11-25T20:55:54.550Z,7.70
2022-11-25T20:57:56.301Z,9.88
2022-11-25T20:59:57.983Z,9.33
2022-11-25T21:01:59.805Z,9.38
2022-11-25T21:04:01.545Z,11.25
2022-11-25T21:06:12.362Z,7.18
2022-11-25T21:08:19.936Z,10.23
2022-11-25T21:10:28.660Z,7.38
2022-11-25T21:12:30.411Z,12.18
2022-11-25T21:14:32.167Z,10.80
2022-11-25T21:16:33.942Z,16.83
2022-11-25T21:18:35.828Z,12.40
2022-11-25T21:20:39.086Z,15.75
2022-11-25T21:22:44.276Z,12.18
2022-11-25T21:24:46.039Z,8.77
2022-11-25T21:26:47.831Z,10.10
2022-11-25T21:28:52.444Z,11.37
2022-11-25T21:30:54.202Z,10.93
2022-11-25T21:33:00.288Z,12.27
2022-11-25T21:35:03.999Z,11.43
2022-11-25T21:37:06.151Z,9.55
2022-11-25T21:39:28.325Z,8.20
2022-11-25T21:41:30.145Z,10.38
2022-11-25T21:43:44.562Z,9.07
2022-11-25T21:45:52.734Z,13.25
2022-11-25T21:47:54.554Z,11.50
2022-11-25T21:49:56.312Z,16.10
2022-11-25T21:51:57.995Z,15.07
2022-11-25T21:53:59.687Z,17.75
2022-11-25T21:56:02.140Z,15.45
2022-11-25T21:58:04.032Z,13.63
2022-11-25T22:00:17.106Z,12.95
2022-11-25T22:02:24.265Z,13.20
2022-11-25T22:04:26.072Z,12.55
2022-11-25T22:06:30.550Z,9.23
2022-11-25T22:08:32.231Z,13.50
2022-11-25T22:10:33.944Z,11.10
2022-11-25T22:12:40.961Z,15.30
2022-11-25T22:14:43.152Z,12.15
2022-11-25T22:16:44.950Z,15.65
2022-11-25T22:18:46.922Z,13.77
2022-11-25T22:20:53.243Z,15.18
2022-11-25T22:22:56.032Z,13.13
2022-11-25T22:24:57.719Z,14.35
2022-11-25T22:26:59.567Z,13.03
2022-11-25T22:29:02.321Z,16.33
2022-11-25T22:33:10.417Z,13.25
2022-11-25T22:35:18.222Z,12.50
2022-11-25T22:37:24.613Z,12.60
2022-11-25T22:39:26.857Z,13.70
2022-11-25T22:41:28.581Z,18.25
2022-11-25T22:43:36.230Z,12.90
2022-11-25T22:45:38.513Z,13.40
2022-11-25T22:47:43.799Z,13.07
2022-11-25T22:49:50.139Z,10.65
2022-11-25T22:51:52.402Z,10.80
2022-11-25T22:53:54.109Z,8.63
2022-11-25T22:55:58.182Z,8.80
2022-11-25T22:58:01.468Z,11.35
2022-11-25T23:00:04.121Z,10.40
2022-11-25T23:04:16.247Z,10.90
2022-11-25T23:06:17.974Z,12.02
2022-11-25T23:08:22.817Z,11.57
2022-11-25T23:10:27.879Z,12.70
2022-11-25T23:12:29.675Z,11.30
2022-11-25T23:14:31.365Z,11.50
2022-11-25T23:16:33.104Z,10.88
2022-11-25T23:18:39.728Z,9.60
2022-11-25T23:20:41.878Z,10.10
2022-11-25T23:22:43.627Z,16.35
2022-11-25T23:24:47.736Z,13.80
2022-11-25T23:26:49.464Z,11.93
2022-11-25T23:28:51.187Z,10.77
2022-11-25T23:30:57.989Z,10.30
2022-11-25T23:33:00.335Z,10.40
2022-11-25T23:35:02.452Z,15.93
2022-11-25T23:37:04.232Z,7.45
2022-11-25T23:39:06.036Z,9.70
2022-11-25T23:41:14.695Z,11.65
2022-11-25T23:43:16.868Z,7.50
2022-11-25T23:45:21.341Z,13.82
2022-11-25T23:47:23.263Z,11.10
2022-11-25T23:49:33.413Z,10.07
2022-11-25T23:51:35.764Z,11.75
2022-11-25T23:53:40.334Z,10.07
2022-11-25T23:55:42.085Z,12.50
2022-11-25T23:57:47.334Z,9.33
2022-11-25T23:59:49.588Z,12.18
